Haddenham, United Kingdom
Current Conditions -  °F | °C
As of 3:50 PM on Friday 19 Dec 2014 (Local Time) from EGUB Reporting Station
Few Clouds Few Clouds  
Wind Chill:   Ceiling: Unl
Heat Index:   Visibility: 6mi
Dew Point:   Wind: 13mph
Humidity: 62%   Direction: 260°W
Pressure: 30.06"   Gusts: NA
Location:  51.77°N, 0.93°W
Report Text: EGUB 191550Z 26011KT 9999 FEW044 08/01 Q1018 BLU NOSIG
Loading
Personal Weather Stations






























Interactive Weather Map New forecast layout! Learn more

10-Day Weather Forecast

Advertisements
Track Severe Weather on mobile